Time;durP1;ratioP1;P1;durP2;ratioP2;P2;SDS_P1;SDS_P2;PMS_P1;PMS_P2;Temp;Humidity;BMP_temperature;BMP_pressure;BME280_temperature;BME280_humidity;BME280_pressure;Samples;Min_cycle;Max_cycle;Signal;HPM_P1;HPM_P2
2022/05/22 00:00:47;;;;;;;6.78;4.05;;;;;;;11.64;81.00;101222.84;4974666;28;20315;-72
2022/05/22 00:03:12;;;;;;;7.88;4.00;;;;;;;11.67;80.93;101219.91;4993545;28;20024;-72
2022/05/22 00:05:37;;;;;;;8.23;4.30;;;;;;;11.61;80.95;101211.69;4992777;28;20009;-72
2022/05/22 00:08:03;;;;;;;8.73;4.38;;;;;;;11.59;81.64;101203.00;4960261;28;20120;-73
2022/05/22 00:10:28;;;;;;;4.53;3.88;;;;;;;11.61;81.42;101196.59;4993746;28;20690;-74
2022/05/22 00:12:53;;;;;;;4.55;3.90;;;;;;;11.61;81.41;101199.25;4976713;28;20631;-73
2022/05/22 00:15:19;;;;;;;5.10;4.00;;;;;;;11.54;81.89;101198.09;4991373;28;20005;-73
2022/05/22 00:17:44;;;;;;;7.75;3.80;;;;;;;11.58;81.85;101199.53;4976288;28;20029;-73
2022/05/22 00:20:10;;;;;;;5.10;4.20;;;;;;;11.60;81.91;101200.22;4962256;28;20592;-73
2022/05/22 00:22:36;;;;;;;6.80;4.05;;;;;;;11.61;82.13;101198.44;4975861;28;20829;-73
2022/05/22 00:25:02;;;;;;;4.68;3.90;;;;;;;11.64;82.18;101191.03;4976473;28;20025;-73
2022/05/22 00:27:27;;;;;;;9.23;4.22;;;;;;;11.65;82.18;101202.50;4991366;28;20001;-74
2022/05/22 00:29:52;;;;;;;4.43;4.03;;;;;;;11.80;81.76;101221.53;5014161;28;20017;-72
2022/05/22 00:32:18;;;;;;;4.68;3.95;;;;;;;11.66;82.38;101212.09;5010786;28;20029;-73
2022/05/22 00:34:43;;;;;;;5.32;4.50;;;;;;;11.67;82.83;101205.84;5013722;28;20447;-73
2022/05/22 00:37:08;;;;;;;4.55;4.03;;;;;;;11.63;83.18;101199.13;4993906;28;20021;-73
2022/05/22 00:39:34;;;;;;;4.72;3.90;;;;;;;11.69;82.49;101185.34;4978068;28;20008;-72
2022/05/22 00:42:01;;;;;;;5.60;4.10;;;;;;;11.68;82.68;101171.25;4991518;28;20018;-73
2022/05/22 00:44:26;;;;;;;5.00;4.00;;;;;;;11.67;82.87;101163.41;4978185;28;20090;-73
2022/05/22 00:46:51;;;;;;;5.72;3.85;;;;;;;11.62;83.06;101155.88;4994155;28;21160;-73
2022/05/22 00:49:27;;;;;;;4.53;3.83;;;;;;;11.66;82.87;101152.00;4982867;28;20568;-72
2022/05/22 00:52:00;;;;;;;4.72;4.22;;;;;;;11.57;83.10;101142.19;4992250;28;20385;-73
2022/05/22 00:54:32;;;;;;;6.53;3.80;;;;;;;11.72;82.63;101140.00;4975018;28;20022;-73
2022/05/22 00:57:05;;;;;;;7.00;3.92;;;;;;;11.87;81.71;101137.81;4971137;28;20010;-73
2022/05/22 00:59:33;;;;;;;7.97;4.32;;;;;;;11.78;82.04;101150.06;4984517;28;20005;-74
2022/05/22 01:01:59;;;;;;;6.40;4.00;;;;;;;11.98;81.13;101176.69;4974954;28;20791;-73
2022/05/22 01:04:26;;;;;;;6.28;4.30;;;;;;;11.85;81.46;101172.41;4975622;28;20024;-72
2022/05/22 01:06:52;;;;;;;7.35;3.97;;;;;;;11.91;81.51;101165.72;4978162;28;20014;-73
2022/05/22 01:09:17;;;;;;;4.47;4.00;;;;;;;11.79;81.60;101169.50;4957864;28;20790;-73
2022/05/22 01:11:42;;;;;;;4.72;4.35;;;;;;;11.67;81.82;101166.91;4959259;28;20102;-73
2022/05/22 01:14:11;;;;;;;7.15;4.25;;;;;;;11.63;81.77;101173.47;4962139;28;20017;-72
2022/05/22 01:16:36;;;;;;;5.72;4.00;;;;;;;11.82;80.86;101175.34;4975821;28;20022;-72
2022/05/22 01:19:10;;;;;;;5.43;4.20;;;;;;;11.93;80.28;101178.84;4961318;28;20028;-72
2022/05/22 01:21:35;;;;;;;;;;;;;;;12.07;79.23;101180.31;4988226;28;20028;-73
2022/05/22 01:24:00;;;;;;;6.13;4.23;;;;;;;11.95;79.44;101172.47;5013322;28;19904;-73
2022/05/22 01:26:27;;;;;;;4.32;3.92;;;;;;;12.01;79.24;101171.97;5013977;28;20029;-72
2022/05/22 01:28:52;;;;;;;4.82;4.18;;;;;;;11.84;79.71;101178.72;4995656;28;20250;-73
2022/05/22 01:31:17;;;;;;;5.88;4.13;;;;;;;11.88;79.96;101175.78;5012990;28;20918;-73
2022/05/22 01:33:43;;;;;;;4.45;4.05;;;;;;;11.83;80.35;101176.16;4985355;28;20029;-73
2022/05/22 01:36:08;;;;;;;4.68;4.18;;;;;;;11.85;79.60;101168.94;4980830;28;20331;-73
2022/05/22 01:38:34;;;;;;;4.72;4.18;;;;;;;11.76;80.24;101167.94;4962472;28;20550;-73
2022/05/22 01:40:59;;;;;;;4.53;4.05;;;;;;;11.49;80.80;101177.31;4979929;28;20081;-72
2022/05/22 01:43:25;;;;;;;6.88;4.43;;;;;;;11.40;81.34;101177.25;4979747;28;20025;-73
2022/05/22 01:45:50;;;;;;;5.93;4.20;;;;;;;11.47;81.23;101175.75;4999415;28;20018;-73
2022/05/22 01:48:15;;;;;;;6.03;3.92;;;;;;;11.33;81.08;101169.81;4991011;28;20839;-73
2022/05/22 01:50:41;;;;;;;6.30;4.15;;;;;;;11.22;81.72;101174.38;4976935;28;20018;-72
2022/05/22 01:53:07;;;;;;;7.05;4.13;;;;;;;11.18;81.66;101171.13;4991411;28;21310;-72
2022/05/22 01:55:32;;;;;;;4.15;3.80;;;;;;;11.21;81.66;101167.38;4975591;28;20382;-72
2022/05/22 01:57:58;;;;;;;5.78;3.95;;;;;;;11.09;81.72;101170.09;4993107;28;20014;-73
2022/05/22 02:00:24;;;;;;;4.30;3.75;;;;;;;11.32;81.01;101176.09;4971606;28;20033;-73
2022/05/22 02:02:49;;;;;;;4.95;4.03;;;;;;;11.25;80.70;101179.41;4965467;28;20029;-73
2022/05/22 02:05:16;;;;;;;7.35;4.05;;;;;;;11.38;80.43;101168.59;4977631;28;20857;-73
2022/05/22 02:10:26;;;;;;;9.15;4.47;;;;;;;10.89;81.65;101163.84;5012765;28;20465;-72
2022/05/22 02:12:53;;;;;;;5.80;4.18;;;;;;;10.90;81.77;101149.63;4978786;28;20239;-72
2022/05/22 02:15:19;;;;;;;4.50;4.10;;;;;;;10.83;81.80;101146.66;4987782;28;20456;-73
2022/05/22 02:17:44;;;;;;;4.22;3.83;;;;;;;10.72;82.30;101148.53;4982760;28;20701;-72
2022/05/22 02:20:10;;;;;;;5.70;4.57;;;;;;;10.63;82.83;101158.91;4940108;28;20392;-74
2022/05/22 02:22:43;;;;;;;5.93;4.45;;;;;;;10.67;82.47;101158.66;4973488;28;20104;-73
2022/05/22 02:25:08;;;;;;;6.43;4.43;;;;;;;10.61;82.20;101155.53;4941506;28;20014;-71
2022/05/22 02:27:34;;;;;;;5.32;4.15;;;;;;;10.57;82.51;101159.41;4961951;28;20089;-73
2022/05/22 02:30:00;;;;;;;4.90;4.40;;;;;;;10.55;82.55;101150.75;4959462;28;20331;-73
2022/05/22 02:32:25;;;;;;;4.85;4.40;;;;;;;10.46;83.07;101143.56;4974599;28;20743;-72
2022/05/22 02:34:50;;;;;;;4.50;4.10;;;;;;;10.51;82.82;101140.56;4957083;28;20021;-73
2022/05/22 02:37:16;;;;;;;5.75;4.57;;;;;;;10.41;82.58;101120.16;4940569;28;20013;-73
2022/05/22 02:39:41;;;;;;;6.30;5.00;;;;;;;10.34;82.79;101116.34;4975996;28;20889;-73
2022/05/22 02:42:06;;;;;;;7.03;4.88;;;;;;;10.28;83.38;101107.06;4976369;28;20200;-72
2022/05/22 02:44:32;;;;;;;5.35;4.80;;;;;;;10.27;83.27;101104.53;4961194;28;20086;-72
2022/05/22 02:46:57;;;;;;;7.03;5.15;;;;;;;10.31;83.05;101101.50;4999541;28;20022;-72
2022/05/22 02:49:23;;;;;;;5.93;4.70;;;;;;;10.28;83.37;101101.78;4974281;28;20254;-72
2022/05/22 02:51:48;;;;;;;6.32;4.93;;;;;;;10.23;83.40;101095.19;4991946;28;20639;-73
2022/05/22 02:54:13;;;;;;;5.55;4.95;;;;;;;10.26;83.28;101098.41;4962826;28;20325;-72
2022/05/22 02:56:40;;;;;;;5.85;5.15;;;;;;;10.25;83.41;101095.88;4990188;28;20009;-72
2022/05/22 02:59:05;;;;;;;7.57;5.50;;;;;;;10.20;83.76;101093.63;4997573;28;20259;-73
2022/05/22 03:01:30;;;;;;;5.47;4.80;;;;;;;10.23;83.78;101093.38;4959647;28;20006;-72
2022/05/22 03:03:56;;;;;;;5.30;4.80;;;;;;;10.21;83.18;101095.31;4998251;28;20025;-73
2022/05/22 03:06:39;;;;;;;6.15;5.20;;;;;;;10.22;83.95;101101.44;4979223;28;20053;-72
2022/05/22 03:09:15;;;;;;;5.82;5.20;;;;;;;10.15;84.19;101101.09;5001852;28;20021;-72
2022/05/22 03:11:41;;;;;;;5.57;5.18;;;;;;;10.16;84.09;101097.47;4981855;28;20125;-72
2022/05/22 03:14:06;;;;;;;7.68;5.00;;;;;;;10.22;83.45;101096.97;4982863;28;20128;-72
2022/05/22 03:16:32;;;;;;;5.20;4.80;;;;;;;10.14;83.27;101100.25;4995959;28;20121;-73
2022/05/22 03:18:59;;;;;;;5.43;4.93;;;;;;;10.10;83.55;101095.34;4978327;28;20099;-72
2022/05/22 03:21:24;;;;;;;6.70;5.30;;;;;;;10.10;84.47;101101.47;4974745;28;20017;-71
2022/05/22 03:23:49;;;;;;;6.30;5.70;;;;;;;10.13;83.90;101103.03;4978509;28;20002;-73
2022/05/22 03:26:15;;;;;;;6.00;4.93;;;;;;;10.09;84.09;101102.41;4986781;28;20059;-74
2022/05/22 03:28:40;;;;;;;6.30;5.20;;;;;;;10.13;84.84;101098.56;4974921;28;20060;-73
2022/05/22 03:31:06;;;;;;;6.15;5.53;;;;;;;10.12;84.12;101094.25;4984161;28;20016;-73
2022/05/22 03:33:31;;;;;;;6.13;5.57;;;;;;;10.17;84.15;101096.53;4995256;28;20725;-72
2022/05/22 03:35:56;;;;;;;6.18;5.57;;;;;;;10.16;83.83;101097.47;4997586;28;20249;-73
2022/05/22 03:38:22;;;;;;;6.50;5.32;;;;;;;10.16;83.99;101092.19;4997550;28;20343;-73
2022/05/22 03:40:47;;;;;;;7.93;5.70;;;;;;;10.14;84.39;101096.78;5000538;28;20010;-73
2022/05/22 03:43:13;;;;;;;6.68;5.40;;;;;;;10.16;84.30;101086.06;4982597;28;20747;-73
2022/05/22 03:45:39;;;;;;;6.50;5.65;;;;;;;10.18;84.52;101087.63;4988570;28;20021;-73
2022/05/22 03:48:04;;;;;;;6.75;5.55;;;;;;;10.14;84.21;101083.56;4993797;28;20839;-72
2022/05/22 03:50:30;;;;;;;8.07;6.25;;;;;;;10.12;84.27;101080.19;4978748;28;20025;-73
2022/05/22 03:52:56;;;;;;;6.95;6.05;;;;;;;10.08;84.67;101073.47;4994613;28;20049;-73
2022/05/22 03:55:22;;;;;;;6.22;5.63;;;;;;;10.17;83.94;101072.72;5016644;28;20013;-73
2022/05/22 03:57:47;;;;;;;6.15;5.53;;;;;;;10.14;83.99;101072.97;4979253;28;20262;-73
2022/05/22 04:00:14;;;;;;;6.85;5.47;;;;;;;10.16;84.16;101078.97;4962040;28;20024;-73
2022/05/22 04:02:39;;;;;;;6.28;5.65;;;;;;;10.09;83.95;101068.03;4980107;28;20021;-73
2022/05/22 04:05:08;;;;;;;6.60;6.00;;;;;;;10.10;84.62;101071.56;4963367;28;20074;-73
2022/05/22 04:07:37;;;;;;;6.47;5.50;;;;;;;10.13;84.01;101071.28;4996124;28;19994;-72
2022/05/22 04:10:03;;;;;;;6.20;5.70;;;;;;;10.16;84.05;101068.41;4979086;28;20033;-73
2022/05/22 04:12:28;;;;;;;6.18;5.57;;;;;;;10.24;84.09;101071.25;4979492;28;20516;-73
2022/05/22 04:14:54;;;;;;;6.20;5.60;;;;;;;10.40;83.44;101068.19;4995787;28;20021;-73
2022/05/22 04:17:19;;;;;;;6.00;5.50;;;;;;;10.32;83.16;101066.16;4962761;28;20017;-73
2022/05/22 04:19:45;;;;;;;6.95;5.70;;;;;;;10.28;83.51;101058.63;4980956;28;20025;-72
2022/05/22 04:22:10;;;;;;;5.63;5.13;;;;;;;10.31;84.06;101061.00;4977516;28;20020;-73
2022/05/22 04:27:19;;;;;;;6.38;5.88;;;;;;;10.31;83.91;101072.41;4997657;28;20327;-73
2022/05/22 04:29:45;;;;;;;6.03;5.53;;;;;;;10.34;84.20;101062.56;4963673;28;20018;-72
2022/05/22 04:32:10;;;;;;;7.45;5.82;;;;;;;10.38;83.94;101064.00;4977956;28;20141;-72
2022/05/22 04:34:36;;;;;;;13.07;5.82;;;;;;;10.40;84.13;101067.38;4997124;28;20022;-72
2022/05/22 04:37:01;;;;;;;6.95;5.88;;;;;;;10.46;83.77;101069.50;4977820;28;20240;-73
2022/05/22 04:39:26;;;;;;;5.97;5.55;;;;;;;10.50;83.97;101068.28;5013332;28;20908;-72
2022/05/22 04:41:52;;;;;;;6.53;5.95;;;;;;;10.46;84.64;101074.78;4977124;28;20013;-72
2022/05/22 04:44:17;;;;;;;6.80;6.10;;;;;;;10.60;84.58;101074.50;4963459;28;20717;-72
2022/05/22 04:46:42;;;;;;;6.55;5.80;;;;;;;10.75;83.63;101071.50;5018898;28;20018;-72
2022/05/22 04:49:08;;;;;;;5.93;5.40;;;;;;;10.72;83.48;101074.44;5017071;28;20045;-72
2022/05/22 04:51:33;;;;;;;7.38;6.05;;;;;;;10.65;83.95;101074.09;4986590;28;20006;-73
2022/05/22 04:53:58;;;;;;;7.35;6.22;;;;;;;10.74;84.51;101069.81;4958716;28;20946;-73
2022/05/22 04:56:24;;;;;;;6.18;5.68;;;;;;;10.77;84.26;101074.84;5007586;28;20199;-72
2022/05/22 04:58:49;;;;;;;6.72;5.40;;;;;;;10.81;84.34;101071.81;4997784;28;20108;-72
2022/05/22 05:01:15;;;;;;;6.30;5.63;;;;;;;10.85;84.34;101075.03;4978638;28;20006;-73
2022/05/22 05:03:40;;;;;;;5.88;5.38;;;;;;;10.88;84.46;101079.25;4981029;28;20017;-73
2022/05/22 05:06:05;;;;;;;7.95;6.20;;;;;;;10.97;84.40;101075.78;4979085;28;20185;-73
2022/05/22 05:08:31;;;;;;;6.25;5.72;;;;;;;11.03;84.22;101077.09;4992701;28;20024;-72
2022/05/22 05:10:57;;;;;;;6.18;5.57;;;;;;;11.10;84.57;101072.97;4993196;28;20136;-73
2022/05/22 05:13:23;;;;;;;5.80;5.30;;;;;;;11.25;84.59;101074.28;4978239;28;20128;-73
2022/05/22 05:16:06;;;;;;;6.30;5.70;;;;;;;11.44;84.17;101080.63;4959807;28;20189;-74
2022/05/22 05:18:33;;;;;;;6.13;5.40;;;;;;;11.50;83.99;101070.31;4974391;28;20729;-74
2022/05/22 05:21:01;;;;;;;6.50;5.60;;;;;;;11.67;83.88;101084.72;4940919;28;20362;-74
2022/05/22 05:23:27;;;;;;;6.05;5.22;;;;;;;11.75;83.56;101075.28;4941106;28;20019;-73
2022/05/22 05:25:52;;;;;;;8.38;5.70;;;;;;;11.82;83.17;101071.94;4962553;28;21105;-73
2022/05/22 05:28:18;;;;;;;7.90;5.78;;;;;;;11.89;83.31;101074.88;4962018;28;20258;-73
2022/05/22 05:30:43;;;;;;;6.03;5.60;;;;;;;11.96;82.95;101065.44;4958357;28;20256;-73
2022/05/22 05:33:09;;;;;;;7.75;5.82;;;;;;;12.08;83.03;101078.56;4958114;28;20459;-72
2022/05/22 05:35:34;;;;;;;7.53;6.03;;;;;;;12.13;82.83;101076.34;4958358;28;20013;-74
2022/05/22 05:38:00;;;;;;;6.20;5.68;;;;;;;12.20;83.13;101077.47;4943393;28;20004;-73
2022/05/22 05:40:25;;;;;;;6.32;5.60;;;;;;;12.27;83.07;101075.91;4981011;28;21094;-73
2022/05/22 05:42:51;;;;;;;7.65;5.82;;;;;;;12.38;82.45;101064.34;4990683;28;20011;-73
2022/05/22 05:45:17;;;;;;;6.72;6.13;;;;;;;12.51;82.01;101061.38;4986325;27;20016;-73
2022/05/22 05:47:49;;;;;;;5.93;5.13;;;;;;;12.65;82.41;101062.75;4958158;28;20300;-72
2022/05/22 05:50:15;;;;;;;5.93;5.43;;;;;;;12.77;82.24;101072.22;4955642;28;20847;-73
2022/05/22 05:52:41;;;;;;;6.70;6.10;;;;;;;12.84;82.18;101059.22;4942488;28;20421;-74
2022/05/22 05:55:06;;;;;;;7.60;5.60;;;;;;;12.94;81.56;101052.03;4940538;28;20921;-74
2022/05/22 05:57:32;;;;;;;8.27;5.55;;;;;;;13.00;81.25;101046.16;4979322;28;20017;-73
2022/05/22 05:59:57;;;;;;;6.60;5.68;;;;;;;13.06;81.04;101056.22;4977176;28;20021;-73
2022/05/22 06:02:22;;;;;;;6.30;5.70;;;;;;;13.14;81.17;101047.53;4994654;28;20719;-73
2022/05/22 06:04:48;;;;;;;6.45;5.70;;;;;;;13.23;80.81;101043.16;5010666;28;20258;-73
2022/05/22 06:07:13;;;;;;;6.30;5.70;;;;;;;13.27;80.64;101039.22;4975712;28;20466;-74
2022/05/22 06:09:39;;;;;;;6.68;5.82;;;;;;;13.42;79.82;101047.53;5011337;28;20014;-73
2022/05/22 06:12:05;;;;;;;7.57;5.57;;;;;;;13.56;78.01;101044.41;4974317;28;20381;-73
2022/05/22 06:14:30;;;;;;;9.05;5.15;;;;;;;13.72;77.45;101051.72;4986507;28;20010;-73
2022/05/22 06:16:56;;;;;;;7.13;5.25;;;;;;;13.85;76.54;101054.00;4957005;28;20447;-74
2022/05/22 06:19:54;;;;;;;5.72;5.13;;;;;;;14.00;76.62;101045.50;4973010;28;20456;-73
2022/05/22 06:22:07;;;;;;;8.13;5.43;;;;;;;14.18;75.92;101056.97;4989335;28;20016;-74
2022/05/22 06:24:36;;;;;;;6.93;5.43;;;;;;;14.31;73.75;101056.59;4957498;28;20022;-73
2022/05/22 06:27:02;;;;;;;5.95;4.88;;;;;;;14.40;73.53;101055.66;4971433;28;20009;-73
2022/05/22 06:29:28;;;;;;;6.03;4.40;;;;;;;14.44;71.85;101056.22;4972718;28;20025;-74
2022/05/22 06:31:53;;;;;;;8.82;4.68;;;;;;;14.43;71.33;101044.72;4973017;28;20290;-74
2022/05/22 06:34:19;;;;;;;7.82;4.63;;;;;;;14.52;70.40;101047.44;4992198;28;20401;-73
2022/05/22 06:36:44;;;;;;;4.97;4.47;;;;;;;14.48;69.29;101046.06;4982231;28;20010;-73
2022/05/22 06:41:53;;;;;;;5.80;4.47;;;;;;;14.66;68.36;101049.56;5004603;28;20086;-74
2022/05/22 06:44:19;;;;;;;8.38;4.55;;;;;;;14.71;67.83;101057.94;4972606;28;20010;-74
2022/05/22 06:46:44;;;;;;;4.55;4.07;;;;;;;14.79;67.18;101056.31;4977791;28;20523;-74
2022/05/22 06:49:10;;;;;;;6.13;4.15;;;;;;;14.82;66.86;101061.31;4974200;28;20022;-73
2022/05/22 06:51:36;;;;;;;6.55;3.90;;;;;;;14.94;66.94;101060.88;4968924;28;20710;-73
2022/05/22 06:54:01;;;;;;;6.70;4.00;;;;;;;15.09;66.74;101055.81;4991761;28;20556;-73
2022/05/22 06:56:26;;;;;;;8.82;4.22;;;;;;;15.09;66.75;101061.16;4951993;28;20024;-74
2022/05/22 06:58:52;;;;;;;6.30;3.95;;;;;;;15.23;66.94;101061.53;4939205;28;20013;-74
2022/05/22 07:01:17;;;;;;;6.60;4.28;;;;;;;15.28;67.65;101054.75;4989431;28;20070;-74
2022/05/22 07:03:42;;;;;;;7.03;3.90;;;;;;;15.33;67.23;101040.94;4960999;28;20021;-74
2022/05/22 07:06:08;;;;;;;6.20;3.88;;;;;;;15.41;66.36;101050.78;4970366;28;20937;-74
2022/05/22 07:08:33;;;;;;;4.50;4.10;;;;;;;15.45;66.38;101053.00;4955299;28;20830;-74
2022/05/22 07:13:42;;;;;;;;;;;;;;;15.57;64.80;101052.69;4975530;28;20040;-74
2022/05/22 07:16:08;;;;;;;7.47;3.73;;;;;;;15.65;63.93;101049.19;4970328;28;19908;-74
2022/05/22 07:18:34;;;;;;;5.10;3.45;;;;;;;15.56;63.78;101043.00;4956610;28;20358;-74
2022/05/22 07:20:59;;;;;;;6.13;3.30;;;;;;;15.73;63.86;101041.22;4955822;28;21009;-74
2022/05/22 07:23:24;;;;;;;6.28;3.65;;;;;;;15.85;64.52;101045.28;4972340;28;20414;-74
2022/05/22 07:25:51;;;;;;;5.57;3.55;;;;;;;16.01;65.20;101044.47;4990100;28;20434;-74
2022/05/22 07:28:17;;;;;;;6.38;3.40;;;;;;;15.95;64.03;101045.97;4958729;28;20029;-74
2022/05/22 07:30:42;;;;;;;7.72;3.80;;;;;;;16.07;64.58;101037.63;4957189;28;20006;-74
2022/05/22 07:33:08;;;;;;;5.20;3.50;;;;;;;16.20;64.12;101031.78;4991352;28;20049;-74
2022/05/22 07:35:33;;;;;;;4.75;3.60;;;;;;;16.25;64.45;101037.47;4957631;28;20125;-74
2022/05/22 07:37:59;;;;;;;7.05;3.60;;;;;;;16.37;64.33;101022.78;4991743;28;20010;-74
2022/05/22 07:40:24;;;;;;;8.82;3.63;;;;;;;16.36;63.68;101025.59;4976643;28;20452;-73
2022/05/22 07:42:50;;;;;;;5.03;3.47;;;;;;;16.47;63.51;101031.47;4991890;28;20528;-73
2022/05/22 07:45:15;;;;;;;5.30;3.17;;;;;;;16.72;60.75;101035.91;4956103;28;20979;-74
2022/05/22 07:47:41;;;;;;;4.50;3.38;;;;;;;16.60;60.05;101025.59;4935855;28;20263;-73
2022/05/22 07:50:20;;;;;;;3.72;3.40;;;;;;;16.71;60.52;101024.41;4966169;28;20042;-74
2022/05/22 07:52:49;;;;;;;3.97;3.45;;;;;;;16.85;60.98;101024.69;4954879;28;20102;-74
2022/05/22 07:55:14;;;;;;;5.68;3.50;;;;;;;16.87;60.17;101015.50;4947880;28;20889;-74
2022/05/22 07:57:43;;;;;;;3.47;3.17;;;;;;;16.99;61.70;101016.00;4971728;28;20116;-74
2022/05/22 08:00:09;;;;;;;4.63;3.22;;;;;;;17.17;61.18;101021.97;4954168;28;20013;-74
2022/05/22 08:02:35;;;;;;;6.15;3.50;;;;;;;17.19;59.59;101021.78;4954000;28;20006;-74
2022/05/22 08:05:00;;;;;;;6.28;3.03;;;;;;;17.30;59.24;101024.09;4955451;28;20060;-75
2022/05/22 08:07:26;;;;;;;4.43;3.17;;;;;;;17.48;60.77;101018.44;4953132;28;20404;-74
2022/05/22 08:09:51;;;;;;;3.97;3.00;;;;;;;17.65;61.17;101013.00;4970954;28;20110;-74
2022/05/22 08:12:17;;;;;;;4.13;2.83;;;;;;;17.61;59.45;101015.22;4970965;28;20702;-74
2022/05/22 08:14:44;;;;;;;6.22;2.80;;;;;;;17.67;60.07;101013.69;4972785;28;20573;-73
2022/05/22 08:17:10;;;;;;;3.47;2.92;;;;;;;17.76;58.29;101004.56;4970271;28;20018;-74
2022/05/22 08:19:35;;;;;;;4.65;2.63;;;;;;;17.86;55.56;101002.47;4969221;28;20021;-74
2022/05/22 08:22:01;;;;;;;4.50;2.72;;;;;;;18.18;56.49;101000.59;4970967;28;20033;-75
2022/05/22 08:24:26;;;;;;;6.07;2.30;;;;;;;18.45;56.14;101000.22;4987762;28;20537;-73
2022/05/22 08:26:51;;;;;;;6.20;2.70;;;;;;;18.67;52.03;100993.09;4971062;28;20002;-74
2022/05/22 08:29:17;;;;;;;2.78;2.20;;;;;;;18.73;51.64;100997.75;4971876;28;20056;-73
2022/05/22 08:31:42;;;;;;;3.65;2.47;;;;;;;18.92;53.77;100990.19;4986328;28;20018;-74
2022/05/22 08:34:07;;;;;;;4.97;2.25;;;;;;;19.15;51.71;100996.25;4937732;28;20059;-74
2022/05/22 08:36:33;;;;;;;4.95;2.30;;;;;;;19.38;50.56;100989.94;4978686;28;20292;-74
2022/05/22 08:38:58;;;;;;;4.72;2.67;;;;;;;19.47;50.05;100988.78;4935069;28;20019;-74
2022/05/22 08:41:32;;;;;;;4.80;2.55;;;;;;;19.60;51.42;100984.56;4949745;28;20271;-74
2022/05/22 08:44:16;;;;;;;;;;;;;;;19.59;50.02;100978.38;4935392;28;20030;-74
2022/05/22 08:46:53;;;;;;;4.18;2.78;;;;;;;19.67;49.51;100978.28;4963418;28;20315;-75
2022/05/22 08:49:23;;;;;;;5.63;2.70;;;;;;;19.81;48.57;100983.78;4960237;28;20381;-74
2022/05/22 08:51:51;;;;;;;4.03;2.47;;;;;;;19.97;49.20;100980.84;4968788;28;20423;-74
2022/05/22 08:54:20;;;;;;;4.03;2.60;;;;;;;19.90;47.97;100978.09;4955052;28;20122;-74
2022/05/22 08:59:31;;;;;;;;;;;;;;;20.09;50.63;100962.34;4975318;28;20893;-73
2022/05/22 09:02:06;;;;;;;6.47;3.35;;;;;;;20.12;46.72;100953.88;4970939;28;19908;-73
2022/05/22 09:05:05;;;;;;;4.47;3.10;;;;;;;20.15;47.02;100958.88;4939416;28;20091;-74
2022/05/22 09:07:52;;;;;;;4.85;2.97;;;;;;;20.15;47.70;100953.50;4957419;28;20030;-73
2022/05/22 09:10:24;;;;;;;4.22;2.92;;;;;;;20.27;51.12;100944.91;4950290;28;20015;-75
2022/05/22 09:13:27;;;;;;;5.80;2.90;;;;;;;20.62;50.67;100942.25;4950814;28;20050;-74
2022/05/22 09:16:10;;;;;;;5.05;3.30;;;;;;;21.09;46.86;100933.38;4946342;28;20010;-74
2022/05/22 09:18:42;;;;;;;7.03;2.80;;;;;;;21.27;49.23;100924.72;4957222;28;20026;-74
2022/05/22 09:21:27;;;;;;;5.97;3.08;;;;;;;21.58;48.36;100933.31;4968515;28;20010;-73
2022/05/22 09:24:12;;;;;;;4.25;2.97;;;;;;;21.92;46.79;100926.91;4954974;28;20002;-74
2022/05/22 09:27:02;;;;;;;7.05;2.88;;;;;;;22.25;45.05;100925.22;4938792;28;20013;-74
2022/05/22 09:29:46;;;;;;;7.20;3.00;;;;;;;22.45;43.76;100925.22;4972257;28;20529;-74
2022/05/22 09:32:17;;;;;;;3.92;2.38;;;;;;;22.41;39.61;100918.59;4973597;28;20458;-74
2022/05/22 09:35:01;;;;;;;4.45;2.47;;;;;;;22.41;42.14;100915.91;4994111;28;20823;-74
2022/05/22 09:37:54;;;;;;;5.38;2.58;;;;;;;22.46;42.33;100910.69;5007425;28;20118;-74
2022/05/22 09:40:23;;;;;;;4.78;1.95;;;;;;;22.83;38.60;100919.06;4999726;28;20268;-74
2022/05/22 09:43:21;;;;;;;4.38;2.20;;;;;;;23.14;41.11;100917.47;4974872;28;20065;-74
2022/05/22 09:46:12;;;;;;;5.95;2.60;;;;;;;23.30;37.90;100913.47;4963348;28;20014;-75
2022/05/22 09:49:08;;;;;;;5.15;2.67;;;;;;;23.69;39.62;100916.94;4938054;28;20030;-75
2022/05/22 09:51:58;;;;;;;5.60;2.35;;;;;;;23.85;39.00;100912.84;4956613;28;20084;-75
2022/05/22 09:54:34;;;;;;;3.90;2.03;;;;;;;23.94;40.53;100906.13;4952270;28;21071;-75
2022/05/22 09:57:13;;;;;;;4.13;2.00;;;;;;;24.25;38.86;100909.78;4981505;28;20048;-75
2022/05/22 09:59:57;;;;;;;5.25;2.13;;;;;;;24.48;36.26;100919.13;4971418;28;20121;-74
2022/05/22 10:02:57;;;;;;;3.35;2.03;;;;;;;24.22;35.56;100915.66;4972232;28;20030;-75
2022/05/22 10:05:26;;;;;;;3.78;1.80;;;;;;;24.59;35.14;100915.66;4994028;28;20056;-74
2022/05/22 10:08:40;;;;;;;4.53;2.05;;;;;;;24.70;36.69;100914.13;4955224;28;20029;-75
2022/05/22 10:11:11;;;;;;;3.85;2.42;;;;;;;24.26;36.82;100905.22;4981064;28;20025;-75
2022/05/22 10:13:58;;;;;;;4.75;2.67;;;;;;;24.10;37.34;100898.50;4971973;28;20094;-75
2022/05/22 10:16:45;;;;;;;3.30;1.70;;;;;;;24.34;36.95;100897.63;4997934;28;20028;-75
2022/05/22 10:19:33;;;;;;;4.03;2.47;;;;;;;25.33;35.49;100896.63;4973235;28;20018;-75
2022/05/22 10:22:10;;;;;;;4.13;2.05;;;;;;;25.10;36.05;100899.22;4971529;28;21013;-75
2022/05/22 10:24:39;;;;;;;4.30;2.22;;;;;;;25.39;36.50;100894.06;4957454;28;20112;-75
2022/05/22 10:27:19;;;;;;;4.78;2.10;;;;;;;25.98;31.49;100897.66;4972216;28;20021;-75
2022/05/22 10:29:57;;;;;;;2.10;1.90;;;;;;;24.77;34.75;100890.50;4993165;28;20026;-75
2022/05/22 10:32:30;;;;;;;2.72;2.00;;;;;;;24.14;36.01;100900.56;4938933;28;20134;-75
2022/05/22 10:35:33;;;;;;;4.50;2.22;;;;;;;23.20;36.25;100896.91;4966049;28;20082;-74
2022/05/22 10:38:04;;;;;;;3.47;1.80;;;;;;;24.12;39.68;100891.00;5001411;28;20027;-76
2022/05/22 10:42:44;;;;;;;4.60;2.60;;;;;;;24.94;36.89;100892.59;4971630;28;20036;-75
2022/05/22 10:43:15;;;;;;;4.60;2.55;;;;;;;25.74;34.73;100896.00;4990627;28;20083;-75
2022/05/22 10:45:40;;;;;;;5.68;2.85;;;;;;;26.27;32.32;100895.09;4970461;28;20010;-75
2022/05/22 10:48:10;;;;;;;4.93;2.58;;;;;;;25.61;30.96;100887.03;4973548;28;20024;-75
2022/05/22 10:50:35;;;;;;;4.05;2.33;;;;;;;26.18;30.89;100882.94;5013332;28;20034;-75
2022/05/22 10:53:00;;;;;;;3.72;2.25;;;;;;;26.60;30.17;100877.31;4976847;28;20048;-75
2022/05/22 10:55:39;;;;;;;3.80;2.42;;;;;;;27.11;31.86;100876.69;4975127;28;20740;-75
2022/05/22 10:58:14;;;;;;;4.47;2.47;;;;;;;27.09;28.89;100874.22;4976077;28;20598;-75
2022/05/22 11:00:50;;;;;;;5.20;2.25;;;;;;;27.38;28.94;100872.28;4993713;28;20936;-75
2022/05/22 11:03:15;;;;;;;4.10;2.20;;;;;;;26.86;30.42;100872.41;4961823;28;20028;-75
2022/05/22 11:05:49;;;;;;;3.47;2.40;;;;;;;26.12;31.94;100864.94;5010963;28;20026;-75
2022/05/22 11:08:28;;;;;;;3.22;2.30;;;;;;;26.69;31.63;100854.19;4976804;28;20102;-75
2022/05/22 11:10:54;;;;;;;4.55;2.22;;;;;;;27.21;32.74;100855.13;4969638;28;20569;-74
2022/05/22 11:13:24;;;;;;;4.47;2.63;;;;;;;26.04;30.99;100853.34;4954490;28;20356;-75
2022/05/22 11:15:49;;;;;;;5.35;2.80;;;;;;;25.51;32.91;100843.44;4981742;28;20006;-74
2022/05/22 11:18:19;;;;;;;3.20;2.38;;;;;;;26.32;34.18;100843.63;4979462;28;20087;-75
2022/05/22 11:20:50;;;;;;;4.90;2.38;;;;;;;26.78;31.30;100841.06;4991627;28;20927;-75
2022/05/22 11:23:24;;;;;;;4.70;2.60;;;;;;;27.51;32.83;100837.69;4994997;28;20001;-74
2022/05/22 11:25:55;;;;;;;3.25;2.90;;;;;;;27.81;29.45;100834.63;4991479;28;20021;-75
2022/05/22 11:28:39;;;;;;;3.28;2.35;;;;;;;28.13;30.45;100822.28;4971546;28;20018;-75
2022/05/22 11:31:30;;;;;;;3.13;2.70;;;;;;;27.85;28.62;100819.47;4990472;28;20041;-75
2022/05/22 11:34:25;;;;;;;3.67;2.30;;;;;;;28.85;28.12;100820.41;4984285;28;20422;-75
2022/05/22 11:37:11;;;;;;;3.55;2.30;;;;;;;29.08;26.61;100806.47;4922254;28;20110;-75
2022/05/22 11:39:52;;;;;;;4.03;2.85;;;;;;;29.04;26.96;100799.88;5000797;28;20032;-75
2022/05/22 11:42:29;;;;;;;2.67;2.20;;;;;;;29.49;26.85;100794.25;4992525;28;20010;-76
2022/05/22 11:45:33;;;;;;;3.70;2.60;;;;;;;29.44;26.67;100798.59;5006917;27;20555;-76
2022/05/22 11:47:59;;;;;;;;;;;;;;;29.00;28.08;100792.50;4963102;28;20081;-75
2022/05/22 11:50:41;;;;;;;4.63;2.53;;;;;;;29.38;25.29;100791.47;4949992;28;19928;-75